createdAt,value
2019-02-05T00:02:24.662Z,95.00
2019-02-05T00:04:55.115Z,95.30
2019-02-05T00:07:25.548Z,96.10
2019-02-05T00:09:56.024Z,96.30
2019-02-05T00:12:26.460Z,96.10
2019-02-05T00:14:57.260Z,97.50
2019-02-05T00:17:29.132Z,97.70
2019-02-05T00:19:59.718Z,97.80
2019-02-05T00:22:30.236Z,98.40
2019-02-05T00:25:02.197Z,98.90
2019-02-05T00:27:32.639Z,99.50
2019-02-05T00:30:03.035Z,99.60
2019-02-05T00:32:33.637Z,99.90
2019-02-05T00:35:04.579Z,99.90
2019-02-05T00:37:34.961Z,99.90
2019-02-05T00:40:06.748Z,99.90
2019-02-05T00:42:37.228Z,99.90
2019-02-05T00:45:14.861Z,99.90
2019-02-05T00:47:45.316Z,99.90
2019-02-05T00:50:17.701Z,99.90
2019-02-05T00:52:48.242Z,99.90
2019-02-05T00:55:20.520Z,99.90
2019-02-05T00:57:50.900Z,99.90
2019-02-05T01:00:30.776Z,99.90
2019-02-05T01:03:01.498Z,99.90
2019-02-05T01:05:31.978Z,99.90
2019-02-05T01:08:03.990Z,99.90
2019-02-05T01:10:34.857Z,99.90
2019-02-05T01:13:07.699Z,99.90
2019-02-05T01:15:38.089Z,99.90
2019-02-05T01:18:08.541Z,99.90
2019-02-05T01:20:39.050Z,99.90
2019-02-05T01:23:09.622Z,99.90
2019-02-05T01:25:40.514Z,99.90
2019-02-05T01:28:10.959Z,99.90
2019-02-05T01:30:41.344Z,99.90
2019-02-05T01:33:11.712Z,99.90
2019-02-05T01:35:42.079Z,99.90
2019-02-05T01:38:13.605Z,99.90
2019-02-05T01:40:44.046Z,99.90
2019-02-05T01:43:14.700Z,99.90
2019-02-05T01:45:45.186Z,99.90
2019-02-05T01:48:15.668Z,99.90
2019-02-05T01:50:46.557Z,99.90
2019-02-05T01:53:16.961Z,99.90
2019-02-05T01:55:47.452Z,99.90
2019-02-05T01:58:18.001Z,99.90
2019-02-05T02:00:48.455Z,99.90
2019-02-05T02:03:19.156Z,99.90
2019-02-05T02:05:49.759Z,99.90
2019-02-05T02:08:20.341Z,99.90
2019-02-05T02:10:50.982Z,99.90
2019-02-05T02:13:23.055Z,99.90
2019-02-05T02:15:53.559Z,99.90
2019-02-05T02:18:24.544Z,99.90
2019-02-05T02:20:56.341Z,99.90
2019-02-05T02:23:28.301Z,99.90
2019-02-05T02:26:00.208Z,99.90
2019-02-05T02:28:31.538Z,99.90
2019-02-05T02:31:02.298Z,99.90
2019-02-05T02:33:32.669Z,99.90
2019-02-05T02:36:11.063Z,99.80
2019-02-05T02:38:41.513Z,99.20
2019-02-05T02:41:12.123Z,98.80
2019-02-05T02:43:42.570Z,98.30
2019-02-05T02:46:12.956Z,97.80
2019-02-05T02:48:43.479Z,97.30
2019-02-05T02:51:13.830Z,96.90
2019-02-05T02:53:47.312Z,96.30
2019-02-05T02:56:17.953Z,95.80
2019-02-05T02:58:48.435Z,95.60
2019-02-05T03:01:18.886Z,95.30
2019-02-05T03:03:49.392Z,95.10
2019-02-05T03:06:20.092Z,95.00
2019-02-05T03:08:50.442Z,94.80
2019-02-05T03:11:20.810Z,94.70
2019-02-05T03:13:51.353Z,94.50
2019-02-05T03:16:21.724Z,94.60
2019-02-05T03:18:52.041Z,94.50
2019-02-05T03:21:22.621Z,94.60
2019-02-05T03:23:53.042Z,94.80
2019-02-05T03:26:23.919Z,95.00
2019-02-05T03:28:54.384Z,95.20
2019-02-05T03:31:25.404Z,95.10
2019-02-05T03:33:55.698Z,95.30
2019-02-05T03:36:27.471Z,95.50
2019-02-05T03:38:57.837Z,95.50
2019-02-05T03:41:28.871Z,95.60
2019-02-05T03:43:59.382Z,95.60
2019-02-05T03:46:29.737Z,95.60
2019-02-05T03:49:00.907Z,95.80
2019-02-05T03:51:39.856Z,95.80
2019-02-05T03:54:28.362Z,96.00
2019-02-05T03:57:30.624Z,96.10
2019-02-05T03:59:55.032Z,96.20
2019-02-05T04:02:46.191Z,96.30
2019-02-05T04:05:32.543Z,96.70
2019-02-05T04:08:24.845Z,96.90
2019-02-05T04:11:21.846Z,97.00
2019-02-05T04:14:17.246Z,97.20
2019-02-05T04:16:56.009Z,97.50
2019-02-05T04:19:41.019Z,98.00
2019-02-05T04:22:30.355Z,97.70
2019-02-05T04:25:19.466Z,97.70
2019-02-05T04:28:01.023Z,98.10
2019-02-05T04:30:53.216Z,98.00
2019-02-05T04:33:40.991Z,98.10
2019-02-05T04:36:31.628Z,98.00
2019-02-05T04:39:13.791Z,98.10
2019-02-05T04:41:58.929Z,98.10
2019-02-05T04:44:40.551Z,98.20
2019-02-05T04:47:13.623Z,98.20
2019-02-05T04:50:04.287Z,98.30
2019-02-05T04:53:10.863Z,99.00
2019-02-05T04:55:59.981Z,99.00
2019-02-05T04:58:32.980Z,99.00
2019-02-05T05:01:21.248Z,99.00
2019-02-05T05:04:15.127Z,99.30
2019-02-05T05:06:50.765Z,99.30
2019-02-05T05:09:30.126Z,99.60
2019-02-05T05:12:00.509Z,99.60
2019-02-05T05:14:30.818Z,99.70
2019-02-05T05:17:01.727Z,99.80
2019-02-05T05:19:32.097Z,99.90
2019-02-05T05:22:02.566Z,99.90
2019-02-05T05:24:33.060Z,99.90
2019-02-05T05:27:03.626Z,99.80
2019-02-05T05:29:34.244Z,99.90
2019-02-05T05:32:05.797Z,99.90
2019-02-05T05:34:36.087Z,99.90
2019-02-05T05:37:04.970Z,99.90
2019-02-05T05:39:35.316Z,99.90
2019-02-05T05:42:05.714Z,99.90
2019-02-05T05:44:36.132Z,99.90
2019-02-05T05:47:07.049Z,99.90
2019-02-05T05:49:37.414Z,99.90
2019-02-05T05:52:07.983Z,99.90
2019-02-05T05:54:38.368Z,99.90
2019-02-05T05:57:08.672Z,99.90
2019-02-05T05:59:39.068Z,99.90
2019-02-05T06:02:09.433Z,99.90
2019-02-05T06:04:39.919Z,99.90
2019-02-05T06:07:10.433Z,99.90
2019-02-05T06:09:40.787Z,99.90
2019-02-05T06:12:11.322Z,99.90
2019-02-05T06:14:41.820Z,99.90
2019-02-05T06:17:12.193Z,99.90
2019-02-05T06:19:42.582Z,99.90
2019-02-05T06:22:13.186Z,99.90
2019-02-05T06:24:43.659Z,99.90
2019-02-05T06:27:14.072Z,99.90
2019-02-05T06:29:44.507Z,99.90
2019-02-05T06:32:14.906Z,99.90
2019-02-05T06:34:45.263Z,99.90
2019-02-05T06:37:15.885Z,99.90
2019-02-05T06:39:46.292Z,99.90
2019-02-05T06:42:16.732Z,99.90
2019-02-05T06:44:47.727Z,99.90
2019-02-05T06:47:18.073Z,99.90
2019-02-05T06:49:48.636Z,99.90
2019-02-05T06:52:18.999Z,99.90
2019-02-05T06:54:49.403Z,99.90
2019-02-05T06:57:20.021Z,99.90
2019-02-05T06:59:50.987Z,99.90
2019-02-05T07:02:21.642Z,99.90
2019-02-05T07:04:53.386Z,99.90
2019-02-05T07:07:23.821Z,99.90
2019-02-05T07:09:54.387Z,99.90
2019-02-05T07:12:24.762Z,99.90
2019-02-05T07:14:55.597Z,99.90
2019-02-05T07:17:25.968Z,99.90
2019-02-05T07:19:56.330Z,99.90
2019-02-05T07:22:26.768Z,99.90
2019-02-05T07:24:57.260Z,99.90
2019-02-05T07:27:27.663Z,99.90
2019-02-05T07:29:58.241Z,99.90
2019-02-05T07:32:28.630Z,99.90
2019-02-05T07:34:59.098Z,99.90
2019-02-05T07:37:29.587Z,99.90
2019-02-05T07:39:59.925Z,99.90
2019-02-05T07:42:30.488Z,99.90
2019-02-05T07:45:01.480Z,99.90
2019-02-05T07:47:31.957Z,99.90
2019-02-05T07:50:02.501Z,99.90
2019-02-05T07:52:33.050Z,99.90
2019-02-05T07:55:03.497Z,99.90
2019-02-05T07:57:33.868Z,99.90
2019-02-05T08:00:06.154Z,99.90
2019-02-05T08:02:36.608Z,99.90
2019-02-05T08:05:09.623Z,99.90
2019-02-05T08:07:39.923Z,99.90
2019-02-05T08:10:12.985Z,99.90
2019-02-05T08:12:45.418Z,99.90
2019-02-05T08:15:21.295Z,99.90
2019-02-05T08:17:53.003Z,99.90
2019-02-05T08:20:23.603Z,99.90
2019-02-05T08:22:54.089Z,99.90
2019-02-05T08:25:24.631Z,99.90
2019-02-05T08:27:55.449Z,99.90
2019-02-05T08:30:37.330Z,99.90
2019-02-05T08:33:08.998Z,99.90
2019-02-05T08:35:41.203Z,99.90
2019-02-05T08:38:11.648Z,99.90
2019-02-05T08:40:42.113Z,99.90
2019-02-05T08:43:12.659Z,99.90
2019-02-05T08:45:43.129Z,99.90
2019-02-05T08:48:14.419Z,99.90
2019-02-05T08:50:44.912Z,99.90
2019-02-05T08:53:15.377Z,99.90
2019-02-05T08:55:45.741Z,99.90
2019-02-05T08:58:16.626Z,99.90
2019-02-05T09:00:47.361Z,99.90
2019-02-05T09:03:17.873Z,99.90
2019-02-05T09:05:48.640Z,99.90
2019-02-05T09:08:19.012Z,99.90
2019-02-05T09:10:49.434Z,99.90
2019-02-05T09:13:19.833Z,99.90
2019-02-05T09:15:50.223Z,99.90
2019-02-05T09:18:20.692Z,99.90
2019-02-05T09:20:51.290Z,99.90
2019-02-05T09:23:21.623Z,99.90
2019-02-05T09:25:51.995Z,99.90
2019-02-05T09:28:22.390Z,99.90
2019-02-05T09:30:52.711Z,99.90
2019-02-05T09:33:23.068Z,99.90
2019-02-05T09:35:53.585Z,99.90
2019-02-05T09:38:23.960Z,99.90
2019-02-05T09:40:54.268Z,99.90
2019-02-05T09:43:24.689Z,99.90
2019-02-05T09:45:55.006Z,99.90
2019-02-05T09:48:25.390Z,99.90
2019-02-05T09:50:55.869Z,99.90
2019-02-05T09:53:26.276Z,99.90
2019-02-05T09:55:56.740Z,99.90
2019-02-05T09:58:27.156Z,99.90
2019-02-05T10:00:59.668Z,99.90
2019-02-05T10:03:29.322Z,99.90
2019-02-05T10:05:59.978Z,99.90
2019-02-05T10:08:30.296Z,99.90
2019-02-05T10:11:00.667Z,99.90
2019-02-05T10:13:31.038Z,99.90
2019-02-05T10:16:01.468Z,99.90
2019-02-05T10:18:31.835Z,99.90
2019-02-05T10:21:03.629Z,99.90
2019-02-05T10:23:34.057Z,99.90
2019-02-05T10:26:04.851Z,99.90
2019-02-05T10:28:35.350Z,99.90
2019-02-05T10:31:06.924Z,99.90
2019-02-05T10:33:37.263Z,99.90
2019-02-05T10:36:07.970Z,99.90
2019-02-05T10:38:38.252Z,99.90
2019-02-05T10:41:09.345Z,99.90
2019-02-05T10:43:39.810Z,99.90
2019-02-05T10:46:10.417Z,99.90
2019-02-05T10:48:40.821Z,99.90
2019-02-05T10:51:11.323Z,99.90
2019-02-05T10:53:42.412Z,99.90
2019-02-05T10:56:13.069Z,99.90
2019-02-05T10:58:43.454Z,99.90
2019-02-05T11:01:13.910Z,99.90
2019-02-05T11:03:46.900Z,99.90
2019-02-05T11:06:19.916Z,99.90
2019-02-05T11:08:49.276Z,99.90
2019-02-05T11:11:19.634Z,99.90
2019-02-05T11:13:49.963Z,99.90
2019-02-05T11:16:21.740Z,99.90
2019-02-05T11:18:52.074Z,99.90
2019-02-05T11:21:22.382Z,99.90
2019-02-05T11:23:52.884Z,99.90
2019-02-05T11:26:23.287Z,99.90
2019-02-05T11:28:53.684Z,99.90
2019-02-05T11:31:24.102Z,99.90
2019-02-05T11:33:54.511Z,99.90
2019-02-05T11:36:24.856Z,99.90
2019-02-05T11:38:55.351Z,99.90
2019-02-05T11:41:25.828Z,99.90
2019-02-05T11:43:56.131Z,99.90
2019-02-05T11:46:26.604Z,99.90
2019-02-05T11:48:58.351Z,99.90
2019-02-05T11:51:28.956Z,99.90
2019-02-05T11:53:59.372Z,99.90
2019-02-05T11:56:29.928Z,99.90
2019-02-05T11:59:00.561Z,99.90
2019-02-05T12:01:38.552Z,99.90
2019-02-05T12:04:03.691Z,99.90
2019-02-05T12:06:34.162Z,99.90
2019-02-05T12:09:05.569Z,99.90
2019-02-05T12:11:37.217Z,99.90
2019-02-05T12:14:07.791Z,99.90
2019-02-05T12:16:38.447Z,99.90
2019-02-05T12:19:08.908Z,99.90
2019-02-05T12:21:39.383Z,99.90
2019-02-05T12:24:10.145Z,99.90
2019-02-05T12:26:40.813Z,99.90
2019-02-05T12:29:11.198Z,99.90
2019-02-05T12:31:41.765Z,99.90
2019-02-05T12:34:12.118Z,99.90
2019-02-05T12:36:42.635Z,99.90
2019-02-05T12:39:20.315Z,99.90
2019-02-05T12:41:50.838Z,99.90
2019-02-05T12:44:21.260Z,99.90
2019-02-05T12:46:55.098Z,99.90
2019-02-05T12:49:25.573Z,99.90
2019-02-05T12:51:56.737Z,99.90
2019-02-05T12:54:27.411Z,99.90
2019-02-05T12:56:57.804Z,99.90
2019-02-05T12:59:28.468Z,99.90
2019-02-05T13:01:58.866Z,99.90
2019-02-05T13:04:29.225Z,99.90
2019-02-05T13:06:59.747Z,99.90
2019-02-05T13:09:30.573Z,99.90
2019-02-05T13:12:01.109Z,99.90
2019-02-05T13:14:31.484Z,99.90
2019-02-05T13:17:01.866Z,99.90
2019-02-05T13:19:32.696Z,99.90
2019-02-05T13:22:03.160Z,99.90
2019-02-05T13:24:33.503Z,99.90
2019-02-05T13:27:03.863Z,99.90
2019-02-05T13:29:34.294Z,99.90
2019-02-05T13:32:08.706Z,99.90
2019-02-05T13:34:39.241Z,99.90
2019-02-05T13:37:09.701Z,99.90
2019-02-05T13:39:40.049Z,99.90
2019-02-05T13:42:10.839Z,99.90
2019-02-05T13:44:41.277Z,99.90
2019-02-05T13:47:11.882Z,99.90
2019-02-05T13:49:42.966Z,98.90
2019-02-05T13:52:14.669Z,97.50
2019-02-05T13:54:45.085Z,96.80
2019-02-05T13:57:15.645Z,96.40
2019-02-05T13:59:46.230Z,95.20
2019-02-05T14:02:16.902Z,94.80
2019-02-05T14:04:47.351Z,93.30
2019-02-05T14:07:17.756Z,92.20
2019-02-05T14:09:49.422Z,91.20
2019-02-05T14:12:21.967Z,91.40
2019-02-05T14:14:52.448Z,91.60
2019-02-05T14:17:26.012Z,92.20
2019-02-05T14:19:56.308Z,91.90
2019-02-05T14:22:26.817Z,92.50
2019-02-05T14:24:57.215Z,92.00
2019-02-05T14:27:27.676Z,91.40
2019-02-05T14:29:58.102Z,91.20
2019-02-05T14:32:30.614Z,91.00
2019-02-05T14:35:02.094Z,90.50
2019-02-05T14:37:32.780Z,89.80
2019-02-05T14:40:03.216Z,89.70
2019-02-05T14:42:33.695Z,89.00
2019-02-05T14:45:05.368Z,87.70
2019-02-05T14:47:35.838Z,87.40
2019-02-05T14:50:08.919Z,87.40
2019-02-05T14:52:43.018Z,86.80
2019-02-05T14:55:17.993Z,85.90
2019-02-05T14:57:53.135Z,85.60
2019-02-05T15:00:26.312Z,82.50
2019-02-05T15:03:03.229Z,81.20
2019-02-05T15:05:41.611Z,79.70
2019-02-05T15:08:17.525Z,80.10
2019-02-05T15:10:48.341Z,79.50
2019-02-05T15:13:24.612Z,77.60
2019-02-05T15:16:02.908Z,79.20
2019-02-05T15:18:55.891Z,79.20
2019-02-05T15:21:42.119Z,80.60
2019-02-05T15:28:43.100Z,81.60
2019-02-05T15:29:51.154Z,78.60
2019-02-05T15:32:20.836Z,75.20
2019-02-05T15:35:11.026Z,74.90
2019-02-05T15:37:59.278Z,74.30
2019-02-05T15:40:45.390Z,72.40
2019-02-05T15:43:20.038Z,71.30
2019-02-05T15:45:50.652Z,73.00
2019-02-05T15:48:31.248Z,71.70
2019-02-05T15:51:06.086Z,71.80
2019-02-05T15:53:36.146Z,71.50
2019-02-05T15:56:08.210Z,72.60
2019-02-05T15:58:39.521Z,73.20
2019-02-05T16:01:13.855Z,73.30
2019-02-05T16:03:51.795Z,72.90
2019-02-05T16:06:32.180Z,72.20
2019-02-05T16:09:01.268Z,70.20
2019-02-05T16:11:37.105Z,69.30
2019-02-05T16:14:12.061Z,70.00
2019-02-05T16:16:42.999Z,67.00
2019-02-05T16:19:17.326Z,66.40
2019-02-05T16:22:06.818Z,69.30
2019-02-05T16:33:37.075Z,64.60
2019-02-05T16:36:14.372Z,64.30
2019-02-05T16:38:49.240Z,63.80
2019-02-05T16:41:24.423Z,66.30
2019-02-05T16:43:55.143Z,66.10
2019-02-05T16:46:26.908Z,66.10
2019-02-05T16:49:01.080Z,65.30
2019-02-05T16:51:31.725Z,65.60
2019-02-05T16:54:08.959Z,63.90
2019-02-05T16:59:32.666Z,67.40
2019-02-05T17:02:04.367Z,68.00
2019-02-05T17:04:39.197Z,66.60
2019-02-05T17:07:12.970Z,65.80
2019-02-05T17:09:43.671Z,66.40
2019-02-05T17:12:14.173Z,64.90
2019-02-05T17:14:53.384Z,64.10
2019-02-05T17:17:32.297Z,61.10
2019-02-05T17:20:03.792Z,62.00
2019-02-05T17:22:45.455Z,60.50
2019-02-05T17:25:30.170Z,60.10
2019-02-05T17:28:12.970Z,58.70
2019-02-05T17:30:50.153Z,57.80
2019-02-05T17:33:20.715Z,56.80
2019-02-05T17:35:52.896Z,58.50
2019-02-05T17:38:27.660Z,58.10
2019-02-05T17:40:58.812Z,56.20
2019-02-05T17:46:56.960Z,55.70
2019-02-05T17:49:30.145Z,56.60
2019-02-05T17:52:03.816Z,55.70
2019-02-05T17:54:34.403Z,55.70
2019-02-05T17:57:12.022Z,55.00
2019-02-05T17:59:46.583Z,55.10
2019-02-05T18:02:21.375Z,53.80
2019-02-05T18:04:56.703Z,52.70
2019-02-05T18:08:22.278Z,53.40
2019-02-05T18:10:32.718Z,53.10
2019-02-05T18:13:17.975Z,52.40
2019-02-05T18:15:53.411Z,51.80
2019-02-05T18:18:27.510Z,51.70
2019-02-05T18:21:01.133Z,51.10
2019-02-05T18:23:39.605Z,53.30
2019-02-05T18:26:13.672Z,54.50
2019-02-05T18:28:50.274Z,54.20
2019-02-05T18:31:32.180Z,53.80
2019-02-05T18:34:03.900Z,52.70
2019-02-05T18:36:39.627Z,54.00
2019-02-05T18:39:22.669Z,54.40
2019-02-05T18:41:56.392Z,54.50
2019-02-05T18:47:40.194Z,53.20
2019-02-05T18:50:28.802Z,54.70
2019-02-05T18:53:20.064Z,54.10
2019-02-05T18:55:53.262Z,55.10
2019-02-05T18:58:26.689Z,55.50
2019-02-05T19:01:07.055Z,55.60
2019-02-05T19:03:41.593Z,54.40
2019-02-05T19:06:29.346Z,54.50
2019-02-05T19:08:59.389Z,54.30
2019-02-05T19:11:37.710Z,53.00
2019-02-05T19:14:09.897Z,52.00
2019-02-05T19:16:43.294Z,51.30
2019-02-05T19:19:15.325Z,51.90
2019-02-05T19:21:47.415Z,51.50
2019-02-05T19:24:53.735Z,50.90
2019-02-05T19:27:31.134Z,51.00
2019-02-05T19:30:09.041Z,51.00
2019-02-05T19:32:33.651Z,50.50
2019-02-05T19:35:07.385Z,50.70
2019-02-05T19:37:38.591Z,50.20
2019-02-05T19:40:11.737Z,51.30
2019-02-05T19:42:42.330Z,51.40
2019-02-05T19:45:22.881Z,51.50
2019-02-05T19:47:57.945Z,49.70
2019-02-05T19:50:39.085Z,50.10
2019-02-05T19:53:08.270Z,50.00
2019-02-05T19:55:39.083Z,52.00
2019-02-05T19:58:09.553Z,52.30
2019-02-05T20:00:40.048Z,51.00
2019-02-05T20:03:10.677Z,50.90
2019-02-05T20:05:41.321Z,47.90
2019-02-05T20:08:16.140Z,50.60
2019-02-05T20:10:47.742Z,50.20
2019-02-05T20:13:25.648Z,51.80
2019-02-05T20:16:00.474Z,51.90
2019-02-05T20:18:42.988Z,50.30
2019-02-05T20:21:13.722Z,49.90
2019-02-05T20:23:46.942Z,49.10
2019-02-05T20:26:22.120Z,49.00
2019-02-05T20:28:59.927Z,49.80
2019-02-05T20:31:35.950Z,49.80
2019-02-05T20:34:10.082Z,49.50
2019-02-05T20:36:45.095Z,48.20
2019-02-05T20:39:19.303Z,48.50
2019-02-05T20:41:57.574Z,48.80
2019-02-05T20:44:34.508Z,49.80
2019-02-05T20:47:08.027Z,48.40
2019-02-05T20:49:45.529Z,47.60
2019-02-05T20:52:17.450Z,47.70
2019-02-05T20:54:54.399Z,48.20
2019-02-05T20:57:24.819Z,48.90
2019-02-05T21:00:07.000Z,48.30
2019-02-05T21:02:42.412Z,48.00
2019-02-05T21:05:39.308Z,50.10
2019-02-05T21:08:13.486Z,50.20
2019-02-05T21:10:46.580Z,51.30
2019-02-05T21:13:22.484Z,51.80
2019-02-05T21:16:00.174Z,52.40
2019-02-05T21:18:36.359Z,50.70
2019-02-05T21:24:04.212Z,49.80
2019-02-05T21:26:49.283Z,49.90
2019-02-05T21:29:17.559Z,49.20
2019-02-05T21:31:51.992Z,49.70
2019-02-05T21:37:37.782Z,50.00
2019-02-05T21:46:09.220Z,51.10
2019-02-05T21:48:54.930Z,50.80
2019-02-05T21:51:40.549Z,51.70
2019-02-05T21:54:07.027Z,52.10
2019-02-05T21:56:46.392Z,52.20
2019-02-05T21:59:16.917Z,52.90
2019-02-05T22:01:47.376Z,53.70
2019-02-05T22:04:26.657Z,55.20
2019-02-05T22:07:24.371Z,55.70
2019-02-05T22:09:43.905Z,55.20
2019-02-05T22:12:02.116Z,54.30
2019-02-05T22:14:32.749Z,54.10
2019-02-05T22:17:09.506Z,53.10
2019-02-05T22:19:49.973Z,54.70
2019-02-05T22:22:22.035Z,55.20
2019-02-05T22:24:52.422Z,54.90
2019-02-05T22:27:25.650Z,55.30
2019-02-05T22:29:59.940Z,55.70
2019-02-05T22:32:35.457Z,56.40
2019-02-05T22:35:20.170Z,57.00
2019-02-05T22:38:11.509Z,56.70
2019-02-05T22:40:35.161Z,57.10
2019-02-05T22:43:11.403Z,58.00
2019-02-05T22:48:46.760Z,58.40
2019-02-05T22:51:38.452Z,57.90
2019-02-05T22:54:15.895Z,58.20
2019-02-05T22:56:48.041Z,58.80
2019-02-05T22:59:24.620Z,58.40
2019-02-05T23:01:58.285Z,59.60
2019-02-05T23:04:35.990Z,61.70
2019-02-05T23:07:12.063Z,62.60
2019-02-05T23:10:03.049Z,62.40
2019-02-05T23:12:40.300Z,62.00
2019-02-05T23:15:15.026Z,64.20
2019-02-05T23:18:03.469Z,64.30
2019-02-05T23:20:34.512Z,65.40
2019-02-05T23:23:22.954Z,66.00
2019-02-05T23:25:53.378Z,66.20
2019-02-05T23:28:38.404Z,66.00
2019-02-05T23:31:09.001Z,67.20
2019-02-05T23:33:50.389Z,67.70
2019-02-05T23:36:27.662Z,70.20
2019-02-05T23:39:00.519Z,70.40
2019-02-05T23:41:31.064Z,70.10
2019-02-05T23:44:11.703Z,70.70
2019-02-05T23:46:44.404Z,71.20
2019-02-05T23:49:15.610Z,72.50
2019-02-05T23:51:46.636Z,72.30
2019-02-05T23:54:17.190Z,72.40
2019-02-05T23:56:48.545Z,72.70
2019-02-05T23:59:22.353Z,72.90
